Latest Coastal Weather Observations for Adelaide Airport

IDS60701

Issued at 5:41 pm CST Friday 30 September 2016 (issued every 10 minutes, with the page automatically refreshed every 10 minutes)

About coastal observations | Map of coastal stations | Coastal observations for SA | Marine services | Other Formats
Station Details ID: 023034 Name: ADELAIDE AIRPORT Lat: -34.95 Lon: 138.52 Height: 2.0 m
Data from the previous 72 hours. | See also: Recent months at Adelaide Airport
Date/Time
CST
Temp
°C
Wind Pressure Rain since
9am
mm
Weather Cloud Vis
km
Sea
Height
m
Swell
Dir  Spd
kts
Gust
kts
hPa Trend Height
m
Period
s
Dir
30/05:30pm 12.4 SW 9 13 1005.7 - 1.8 - Mostly clear 10 - - - -
30/05:00pm 12.1 SW 13 17 1005.7 - 1.4 Showers Mostly clear 5 - - - -
30/04:30pm 12.9 SW 13 16 1005.3 - 0.4 - Partly cloudy 5 - - - -
30/04:00pm 13.8 WSW 16 22 1005.0 - 0.0 Showers Mostly clear 10 - - - -
30/03:30pm 14.1 WSW 15 18 1004.8 - 0.0 - Partly cloudy 10 - - - -
30/03:00pm 14.4 SW 15 20 1004.8 R 0.0 Fine Mostly cloudy 25 - - - -
30/02:30pm 14.2 SW 18 21 1004.7 - 0.0 - Partly cloudy 10 - - - -
30/02:00pm 14.4 WSW 18 22 1004.7 - 0.0 - Partly cloudy 10 - - - -
30/01:30pm 15.2 SW 19 23 1004.6 - 0.0 - Partly cloudy 10 - - - -
30/01:00pm 15.0 SW 20 25 1004.7 - 0.0 - Partly cloudy 10 - - - -
30/12:30pm 14.2 SW 20 25 1004.8 - 0.0 - Partly cloudy 10 - - - -
30/12:00pm 14.5 SW 24 30 1004.5 R 0.0 Recent precip. Mostly cloudy 25 - - - -
30/11:30am 12.6 SW 19 28 1004.2 - 0.0 - Mostly clear 10 - - - -
30/11:00am 14.4 WSW 21 27 1004.1 - 0.0 - Partly cloudy 10 - - - -
30/10:30am 14.0 WSW 21 27 1003.8 - 0.0 - Partly cloudy 10 - - - -
30/10:00am 14.1 SW 22 27 1003.5 - 0.0 - Partly cloudy 10 - - - -
30/09:30am 13.6 SW 20 27 1003.2 - 0.0 - Mostly clear 10 - - - -
30/09:00am 13.3 SW 19 25 1002.5 R 7.2 Distant precip. Mostly cloudy 20 - - - -
30/08:43am 13.2 SW 19 29 1002.3 - 7.2 - Mostly clear 10 - - - -
30/08:30am 13.3 SW 19 25 1002.1 - 7.2 - Partly cloudy 10 - - - -
30/08:00am 12.3 WSW 17 22 1001.8 - 7.2 - Partly cloudy 10 - - - -
30/07:38am 12.4 WSW 19 26 1001.6 - 7.0 Showers Partly cloudy 4 - - - -
30/07:30am 12.9 WSW 18 23 1001.4 - 6.8 - Partly cloudy 10 - - - -
30/07:00am 13.0 WSW 18 24 1001.2 - 6.8 - Mostly clear 10 - - - -
30/06:30am 13.0 WSW 19 28 1000.9 - 6.8 - Mostly clear 10 - - - -
30/06:24am 12.9 WSW 17 28 1000.8 - 6.8 - Mostly clear 10 - - - -
30/06:00am 12.5 SW 13 19 1000.3 R 6.8 Distant precip. Mostly cloudy 10 - - - -
30/05:30am 12.7 SW 15 20 999.8 - 6.8 - Mostly clear 10 - - - -
30/05:00am 12.2 WSW 19 25 999.6 - 6.8 - Mostly clear 10 - - - -
30/04:30am 12.1 SW 16 22 999.0 - 6.8 - Mostly clear 10 - - - -
30/04:14am 11.8 SW 17 24 998.7 - 6.8 - Mostly clear 10 - - - -
30/04:00am 11.4 SW 24 33 998.8 - 6.8 Showers Mostly clear 6 - - - -
30/03:51am 11.9 WSW 19 30 998.4 - 6.2 Showers Mostly clear 5 - - - -
30/03:30am 12.4 SW 14 19 998.0 - 6.0 - Mostly clear 10 - - - -
30/03:00am 12.3 SW 15 22 997.8 R 6.0 Distant precip. Partly cloudy 25 - - - -
30/02:30am 12.2 SW 16 22 997.5 - 6.0 - Partly cloudy 10 - - - -
30/02:00am 11.5 SW 12 17 997.1 - 6.0 - Mostly clear 10 - - - -
30/01:30am 11.3 SSW 14 21 996.7 - 6.0 - Mostly clear 10 - - - -
30/01:00am 11.2 SSW 16 22 996.1 - 6.0 - Mostly clear 10 - - - -
30/12:30am 11.3 SSW 18 24 995.4 - 6.0 - Mostly clear 10 - - - -
30/12:05am 12.1 SW 27 37 994.0 - 6.0 - Mostly clear 10 - - - -
30/12:00am 12.3 WSW 31 39 993.8 S 6.0 Distant precip. Mostly cloudy 15 - - - -
 
Date/Time
CST
Temp
°C
Wind Pressure Rain since
9am
mm
Weather Cloud Vis
km
Sea
Height
m
Swell
Dir  Spd
kts
Gust
kts
hPa Trend Height
m
Period
s
Dir
29/11:49pm 12.1 WSW 33 44 993.8 - 6.0 - Cloudy 9 - - - -
29/11:30pm 12.3 WSW 30 38 993.8 - 6.0 - Cloudy 9 - - - -
29/11:00pm 11.9 W 31 42 993.6 - 6.0 Rain Cloudy 6 - - - -
29/10:30pm 11.7 W 30 41 994.0 - 5.4 - Cloudy 6 - - - -
29/10:00pm 11.7 WSW 31 41 994.2 - 4.8 Rain Cloudy 6 - - - -
29/09:53pm 11.8 WSW 29 41 994.3 - 4.4 Rain Cloudy 5 - - - -
29/09:48pm 12.1 WSW 29 41 994.2 - 4.2 Rain Cloudy 8 - - - -
29/09:30pm 12.0 WSW 30 39 994.2 - 3.8 - Partly cloudy 6 - - - -
29/09:07pm 12.0 WSW 30 39 994.3 - 3.4 Showers Partly cloudy 5 - - - -
29/09:00pm 12.3 WSW 31 39 994.2 R 3.4 Showers Mostly cloudy 8 - - - -
29/08:40pm 11.6 WSW 30 40 994.1 - 3.4 - Partly cloudy 5 - - - -
29/08:38pm 12.0 WSW 31 40 994.1 - 3.2 Showers Partly cloudy 5 - - - -
29/08:30pm 12.2 WSW 33 43 994.0 - 3.2 - Partly cloudy 10 - - - -
29/08:00pm 12.4 WSW 33 45 993.5 - 3.0 Showers Partly cloudy 10 - - - -
29/07:30pm 12.4 WSW 30 43 993.0 - 3.0 - Partly cloudy 10 - - - -
29/07:00pm 12.3 WSW 31 43 992.4 - 3.0 - Mostly clear 10 - - - -
29/06:30pm 12.4 WSW 31 42 991.7 - 3.0 - Mostly clear 9 - - - -
29/06:23pm 11.9 WSW 31 42 991.5 - 3.0 Showers Mostly clear 7 - - - -
29/06:17pm 12.6 WSW 32 40 991.4 - 2.8 Showers Mostly clear 6 - - - -
29/06:00pm 12.7 WSW 31 41 991.0 R 2.8 Recent precip. Cloudy 9 - - - -
29/05:30pm 12.7 WSW 32 40 990.4 - 2.8 - Mostly clear 7 - - - -
29/05:00pm 12.8 WSW 32 41 989.5 - 2.8 Showers Mostly clear 5 - - - -
29/04:47pm 12.8 WSW 30 41 989.0 - 2.6 - Partly cloudy 7 - - - -
29/04:40pm 12.7 WSW 27 37 988.9 - 2.6 Showers Partly cloudy 4 - - - -
29/04:30pm 12.1 WSW 28 36 988.8 - 2.6 - Mostly clear 6 - - - -
29/04:25pm 11.8 WSW 28 37 988.7 - 2.6 Showers Mostly clear 5 - - - -
29/04:21pm 12.2 WSW 27 37 988.6 - 2.2 Showers Mostly clear 2 - - - -
29/04:18pm 12.7 WSW 27 37 988.4 - 2.2 Showers Mostly clear 6 - - - -
29/04:00pm 13.2 WSW 28 38 987.7 - 2.0 - Mostly clear 10 - - - -
29/03:42pm 13.2 WSW 20 31 987.0 - 2.0 - Mostly clear 10 - - - -
29/03:30pm 13.0 WSW 17 22 986.5 - 2.0 - Partly cloudy 8 - - - -
29/03:26pm 13.0 WSW 16 22 986.4 - 2.0 Showers Mostly clear 7 - - - -
29/03:21pm 12.6 WSW 15 21 986.3 - 2.0 Showers Mostly clear 4 - - - -
29/03:00pm 12.1 WSW 11 15 986.2 R 1.6 Recent precip. Mostly cloudy 9 - - - -
29/02:49pm 11.7 WSW 12 16 986.2 - 1.6 Showers Mostly clear 5 - - - -
29/02:30pm 11.8 W 17 22 986.3 - 0.6 - Mostly clear 3 - - - -
29/02:22pm 12.3 WNW 15 19 986.3 - 0.4 Showers Mostly clear 5 - - - -
29/02:00pm 13.3 W 16 20 986.4 - 0.2 - Mostly clear 10 - - - -
29/01:30pm 14.2 W 15 19 986.3 - 0.2 - Partly cloudy 10 - - - -
29/01:00pm 14.7 WSW 16 20 986.3 - 0.2 - Mostly clear 10 - - - -
29/12:30pm 15.1 WSW 19 23 986.4 - 0.2 - Partly cloudy 10 - - - -
29/12:00pm 14.6 WSW 21 27 986.5 R 0.2 Distant precip. Partly cloudy 18 - - - -
29/11:30am 14.5 WSW 24 30 986.1 - 0.2 - Partly cloudy 10 - - - -
29/11:00am 14.2 WSW 27 38 985.8 - 0.2 - Mostly clear 10 - - - -
29/10:41am 13.5 WSW 29 39 985.3 - 0.2 - Mostly clear 9 - - - -
29/10:30am 12.7 WSW 31 38 984.9 - 0.2 - Mostly clear 8 - - - -
29/10:00am 11.4 WSW 32 42 984.2 - 0.2 Showers Mostly clear 7 - - - -
29/09:55am 11.4 WSW 32 42 984.1 - 0.2 Showers Mostly clear 5 - - - -
29/09:52am 12.1 WSW 32 42 983.9 - 0.2 Showers Mostly clear 7 - - - -
29/09:49am 12.0 WSW 31 40 983.7 - 0.2 Showers Mostly clear 7 - - - -
29/09:30am 12.8 WSW 30 38 983.1 - 0.0 - Mostly clear 2 - - - -
29/09:00am 12.3 WSW 28 38 982.3 R 35.0 Distant precip. Cloudy 15 - - - -
29/08:30am 12.0 WSW 28 38 981.1 - 35.0 - Mostly clear 10 - - - -
29/08:18am 11.8 WSW 28 35 980.3 - 35.0 - Mostly clear 10 - - - -
29/08:08am 11.6 WSW 27 39 979.7 - 35.0 - Partly cloudy 6 - - - -
29/08:00am 11.3 W 25 35 979.3 - 34.8 Showers Mostly clear 7 - - - -
29/07:51am 11.6 WNW 27 36 979.0 - 34.2 Showers Mostly clear 4 - - - -
29/07:30am 11.6 WNW 25 33 978.4 - 34.2 - Mostly clear 10 - - - -
29/07:00am 10.7 NW 22 31 977.8 - 34.2 Showers Mostly clear 8 - - - -
29/06:49am 10.6 NNW 23 28 977.9 - 34.2 Showers Partly cloudy 9 - - - -
29/06:30am 8.4 N 26 39 977.9 - 33.6 - Partly cloudy 4 - - - -
29/06:00am 8.0 N 28 37 979.2 F 32.0 Showers Cloudy 4 - - - -
29/05:45am 8.1 N 25 38 979.6 - 31.0 Showers Partly cloudy 4 - - - -
29/05:30am 8.0 N 28 42 980.2 - 30.4 - Partly cloudy 4 - - - -
29/05:00am 8.4 N 25 36 981.4 - 29.0 Showers Partly cloudy 4 - - - -
29/04:43am 8.5 N 23 33 981.9 - 28.4 Showers Partly cloudy 5 - - - -
29/04:30am 8.5 N 24 31 982.4 - 28.0 - Partly cloudy 10 - - - -
29/04:00am 9.7 NNW 26 37 983.7 - 28.0 Showers Mostly clear 10 - - - -
29/03:46am 9.2 N 26 39 984.2 - 28.0 Showers Mostly clear 5 - - - -
29/03:30am 9.4 NNW 27 40 984.6 - 27.8 - Partly cloudy 8 - - - -
29/03:18am 9.3 NNW 25 40 985.0 - 27.6 Showers Partly cloudy 8 - - - -
29/03:00am 8.8 N 18 24 985.3 F 27.2 Showers Mostly cloudy 9 - - - -
29/02:48am 9.0 N 17 24 985.6 - 26.8 Showers Partly cloudy 5 - - - -
29/02:30am 10.0 N 17 27 986.2 - 26.4 - Partly cloudy 10 - - - -
29/02:00am 10.4 N 19 30 987.3 - 26.4 - Partly cloudy 10 - - - -
29/01:30am 10.0 NNW 20 31 988.4 - 26.4 - Partly cloudy 10 - - - -
29/01:00am 9.7 N 17 25 989.5 - 26.0 - Partly cloudy 10 - - - -
29/12:30am 10.3 NNW 22 32 990.2 - 26.0 - Partly cloudy 10 - - - -
29/12:00am 11.2 NNW 25 36 990.7 F 25.8 Fine Mostly cloudy 25 - - - -
 
Date/Time
CST
Temp
°C
Wind Pressure Rain since
9am
mm
Weather Cloud Vis
km
Sea
Height
m
Swell
Dir  Spd
kts
Gust
kts
hPa Trend Height
m
Period
s
Dir
28/11:30pm 11.4 NW 24 31 991.3 - 25.8 - Partly cloudy 10 - - - -
28/11:13pm 11.7 NW 22 33 991.6 - 25.8 - Partly cloudy 10 - - - -
28/11:00pm 11.5 NW 21 29 991.5 - 25.8 - Partly cloudy 10 - - - -
28/10:51pm 11.6 NNW 21 31 991.6 - 25.8 - Partly cloudy 10 - - - -
28/10:30pm 11.9 NW 21 30 991.9 - 25.8 - Partly cloudy 10 - - - -
28/10:00pm 12.2 NW 23 31 991.9 - 25.8 - Mostly clear 10 - - - -
28/09:30pm 12.5 WNW 18 24 991.7 - 25.8 - Mostly clear 10 - - - -
28/09:00pm 12.4 W 20 28 991.9 F 25.8 Recent precip. Mostly cloudy 25 - - - -
28/08:30pm 12.2 WNW 18 25 992.1 - 25.8 - Mostly clear 10 - - - -
28/08:00pm 11.9 NW 18 23 992.2 - 25.8 Rain Mostly clear 10 - - - -
28/07:30pm 11.8 NW 17 21 992.1 - 25.4 - Mostly clear 10 - - - -
28/07:00pm 13.0 WNW 17 22 991.5 - 24.4 Rain Mostly clear 7 - - - -
28/06:30pm 12.9 W 18 22 991.4 - 24.4 - Mostly clear 10 - - - -
28/06:00pm 13.2 W 23 31 991.3 R 24.4 Distant precip. Mostly cloudy 25 - - - -
28/05:30pm 14.1 WNW 19 34 990.5 - 24.4 - Mostly clear 10 - - - -
28/05:26pm 14.8 WNW 17 27 990.1 - 24.4 - Partly cloudy 10 - - - -
28/05:00pm 14.8 NW 13 20 988.7 - 24.2 Rain Mostly clear 10 - - - -
28/04:45pm 14.8 W 15 28 988.9 - 24.2 - Partly cloudy 4 - - - -
28/04:30pm 15.0 E 6 16 988.6 - 21.8 - Mostly clear 2 - - - -
28/04:22pm 15.3 NE 7 11 988.2 - 17.6 Thunderstorm Mostly clear 2 - - - -
28/04:00pm 16.0 NNE 15 23 988.1 - 14.2 Thunderstorm Mostly clear 5 - - - -
28/03:55pm 16.4 NNE 17 27 988.0 - 13.8 Thunderstorm Mostly clear 5 - - - -
28/03:45pm 16.9 NE 23 35 987.2 - 13.2 Thunderstorm Mostly clear 8 - - - -
28/03:30pm 17.6 NE 23 32 986.9 - 13.2 - Mostly clear 10 - - - -
28/03:00pm 17.9 NE 20 30 988.9 F 13.2 Recent precip. Cloudy 30 - - - -
28/02:30pm 16.4 NE 23 32 990.1 - 13.2 - Cloudy 10 - - - -
28/02:03pm 14.3 NE 22 32 992.1 - 13.2 - Partly cloudy 10 - - - -
28/02:00pm 14.2 NE 21 28 992.6 - 13.2 - Partly cloudy 10 - - - -
28/01:30pm 12.2 NE 16 21 994.7 - 13.2 - Mostly clear 7 - - - -
28/01:29pm 12.1 NE 16 21 994.8 - 13.2 Rain Mostly clear 7 - - - -
28/01:00pm 12.0 NE 13 17 996.8 - 11.4 Rain Mostly clear 6 - - - -
28/12:50pm 11.9 ENE 14 18 997.4 - 11.0 Rain Mostly clear 6 - - - -
28/12:30pm 11.8 NE 14 20 999.4 - 8.2 - Mostly clear 5 - - - -
28/12:00pm 12.8 NNE 19 31 1000.7 F 2.8 Recent th'storm Cloudy 4 - - - -
28/11:54am 13.4 NNE 16 22 1000.5 - 2.0 Thunderstorm Mostly clear 5 - - - -
28/11:45am - N 18 25 - - - Thunderstorm Partly cloudy 8 - - - -
28/11:33am 14.9 NNE 22 32 1000.4 - 0.0 - Partly cloudy 10 - - - -
28/11:30am 15.3 NNE 24 32 1000.2 - 0.0 - Partly cloudy 10 - - - -
28/11:21am 17.3 NNE 23 30 999.5 - 0.0 Thunderstorm Partly cloudy 9 - - - -
28/11:00am 18.5 NE 23 30 998.3 - 0.0 - Partly cloudy 10 - - - -
28/10:43am 19.1 NE 23 36 998.4 - 0.0 - - 10 - - - -
28/10:30am 19.3 NE 21 29 998.9 - 0.0 - - 10 - - - -
28/10:06am 19.5 NE 22 32 1000.0 - 0.0 - - 10 - - - -
28/10:00am 19.7 NE 21 29 1000.3 - 0.0 - - 10 - - - -
28/09:30am 19.4 NE 23 31 1001.6 - 0.0 - - 10 - - - -
28/09:00am 19.0 NE 18 31 1002.8 F 0.0 Fine Mostly clear 30 - - - -
28/08:57am 18.8 NE 17 31 1002.9 - 0.0 - - 10 - - - -
28/08:30am 17.4 NE 17 22 1004.1 - 0.0 - - 10 - - - -
28/08:00am 16.3 NE 16 21 1004.9 - 0.0 - - 10 - - - -
28/07:30am 15.2 NE 13 19 1005.3 - 0.0 - - 10 - - - -
28/07:00am 13.6 NE 11 14 1006.1 - 0.0 - - 10 - - - -
28/06:30am 12.7 NE 10 14 1006.4 - 0.0 - - 10 - - - -
28/06:00am 11.7 NE 10 13 1006.8 F 0.0 Fine Clear 30 - - - -
28/05:30am 11.1 NE 9 11 1007.2 - 0.0 - - 10 - - - -
28/05:00am 10.8 NE 9 10 1007.7 - 0.0 - - 10 - - - -
28/04:30am 11.0 NE 10 11 1008.1 - 0.0 - - 10 - - - -
28/04:00am 10.7 NE 11 14 1008.4 - 0.0 - - 10 - - - -
28/03:30am 11.0 NE 8 11 1008.6 - 0.0 - - 10 - - - -
28/03:00am 10.0 NE 7 9 1009.2 F 0.0 Fine Clear 30 - - - -
28/02:30am 9.5 NE 8 10 1009.7 - 0.0 - - 10 - - - -
28/02:00am 8.4 NE 5 5 1010.4 - 0.0 - - 10 - - - -
28/01:30am 8.5 NE 6 7 1011.0 - 0.0 - - 10 - - - -
28/01:00am 8.6 NE 7 8 1011.6 - 0.0 - - 10 - - - -
28/12:30am 9.7 NE 7 8 1012.0 - 0.0 - - 10 - - - -
28/12:00am 9.6 NE 6 6 1012.0 F 0.0 Fine Clear 30 - - - -
 
Date/Time
CST
Temp
°C
Wind Pressure Rain since
9am
mm
Weather Cloud Vis
km
Sea
Height
m
Swell
Dir  Spd
kts
Gust
kts
hPa Trend Height
m
Period
s
Dir
27/11:30pm 9.0 ENE 2 4 1012.2 - 0.0 - - 10 - - - -
27/11:00pm 9.3 NE 5 6 1012.4 - 0.0 - - 10 - - - -
27/10:30pm 9.7 NE 5 5 1012.7 - 0.0 - - 10 - - - -
27/10:00pm 10.1 NE 5 6 1012.9 - 0.0 - - 10 - - - -
27/09:30pm 10.6 NE 1 4 1013.2 - 0.0 - - 10 - - - -
27/09:00pm 11.3 ENE 4 5 1013.5 F 0.0 Fine Clear 30 - - - -
27/08:30pm 11.7 ENE 5 5 1013.7 - 0.0 - - 10 - - - -
27/08:00pm 12.3 NE 5 6 1013.8 - 0.0 - - 10 - - - -
27/07:30pm 13.2 N 5 6 1013.8 - 0.0 - - 10 - - - -
27/07:00pm 13.6 N 5 6 1013.8 - 0.0 - - 10 - - - -
27/06:30pm 13.7 NNW 6 8 1014.0 - 0.0 - - 10 - - - -
27/06:00pm 14.1 NNW 8 10 1014.1 F 0.0 Fine Mostly clear 25 - - - -

Other Formats:

Comma delimited format used in spreadsheet applications
http://www.bom.gov.au/fwo/IDS60701/IDS60701.94672.axf

JavaScript Object Notation format (JSON) in row-major order
http://www.bom.gov.au/fwo/IDS60701/IDS60701.94672.json